Terminal Aerodrome Forecast
Issued by NWS Sioux Falls, SD

Home | Current Version | Previous Version | Text Only | Print | Product List | Glossary On
Versions: 1 2 3 4 5 6 7 8 9 10 11 12 13 14 15 16 17
053
FTUS43 KFSD 241130
TAFFSD
TAF
KFSD 241130Z 2412/2512 17013G20KT P6SM OVC150
     FM241500 18019G27KT P6SM SCT080 OVC120
     FM241900 20015G23KT P6SM SCT045 BKN100
     FM242300 24011KT P6SM SCT050 BKN100
     FM250200 30010KT P6SM SCT110
     FM250600 35009KT P6SM SCT110 BKN200=

USA.gov is the U.S. government's official web portal to all federal, state and local government web resources and services.